Terminal Aerodrome Forecast
Issued by NWS Houston/Galveston, TX

Home | Current Version | Previous Version | Text Only | Print | Product List | Glossary On
Versions: 1 2 3 4 5 6 7 8 9 10 11 12 13 14
000
FTUS44 KHGX 160527
TAFGLS
TAF
KGLS 160527Z 1606/1706 03006KT P6SM OVC100
     FM161500 08012KT P6SM BKN050 OVC100
     FM161800 09012KT P6SM VCSH OVC050
     FM162200 10015KT P6SM -SHRA BKN025 OVC050
     FM170100 13015G25KT 4SM TSRA SCT007 OVC015CB
     FM170500 36012KT P6SM SCT010 OVC020=

USA.gov is the U.S. government's official web portal to all federal, state and local government web resources and services.